Detalii statie GENERAL AGRO [00001CEA]

Toti senzorii

Date Temperatura solului [C]Precipitatii [mm]Voltaj baterie [mV]HC Air temperature [C]HC Relative humidity [%]Punctul de roua [C]
medieminmaxsumaultimamedieminmaxmediemediemin
2017-10-20 09:00:00 11.6 11.5 11.8 0 7148 11.41 10.87 11.82 0 0 0
2017-10-20 09:30:00 11.9 11.8 12 0 7148 12.58 12.14 12.85 22.1 0
2017-10-20 10:00:00 12.3 12.3 12.4 0 7148 13.61 13.16 14.28 100 13.5 13.1
2017-10-20 10:30:00 12.5 12.4 12.7 0 7148 14.33 13.82 14.88 100 14.2 13.8
2017-10-20 11:00:00 13 12.8 13.2 0 7148 17.17 15.43 18.44 100 17.1 15.4
2017-10-20 11:30:00 13.4 13.1 13.7 0 7148 18.67 18.05 19.11 83.33 0
2017-10-20 12:00:00 13.8 13.6 13.9 0 7138 18.67 18.26 18.87 0 0 0
2017-10-20 12:30:00 14.1 14 14.2 0 7138 19.21 18.69 20.04 0 0 0
2017-10-20 13:00:00 14.3 14.2 14.4 0 7080 20.63 19.59 21.52 0 0 0
2017-10-20 13:30:00 14.5 14.4 14.7 0 7138 20.77 20.66 20.91 0 0 0
2017-10-20 14:00:00 14.7 14.6 14.8 0 7138 21.24 21.16 21.37 0 0 0
2017-10-20 14:30:00 14.8 14.7 14.9 0 7020 21.83 21.62 22.01 0 0 0
2017-10-20 15:00:00 14.9 14.9 15 0 7000 21.95 21.81 22.03 0 0 0
2017-10-20 15:30:00 15 15 15.2 0 6922 22.11 21.9 22.21 0 0 0
2017-10-20 16:00:00 15.1 15 15.2 0 6922 22.25 22.01 22.57 0 0 0
2017-10-20 16:30:00 15 15 15.2 0 6894 21.55 20.33 22.91 0 0 0
2017-10-20 17:00:00 15 14.9 15.1 0 6894 19.21 18.54 20.12 0 0 0
2017-10-20 17:30:00 14.8 14.8 14.9 0 6874 17.84 16.95 18.22 0 0 0
2017-10-20 18:00:00 14.6 14.5 14.8 0 6874 15.86 15.08 16.58 0 0 0
2017-10-20 18:30:00 14.5 14.4 14.7 0 6864 15.38 14.55 15.75 0 0 0
2017-10-20 19:00:00 14.3 14.2 14.5 0 6874 13.08 11.66 14.23 0 0 0
2017-10-20 19:30:00 14.1 14.1 14.1 0 6854 11.32 11.08 11.58 0 0 0
2017-10-20 20:00:00 13.9 13.9 14 0 6854 11.5 11.01 12.26 100 11.4 11
2017-10-20 20:30:00 13.7 13.6 13.9 0 6854 12.85 12.37 13.72 33.33 4.4 0
2017-10-20 21:00:00 13.6 13.6 13.7 0 6854 11.07 10.45 12.05 100 11 10.4
2017-10-20 21:30:00 13.5 13.4 13.6 0 6834 10.7 10.42 11.1 50 0
2017-10-20 22:00:00 13.3 13.3 13.5 0 6844 11.53 10.94 12.05 0 0 0
2017-10-20 22:30:00 13.2 13.2 13.3 0 6834 11.6 11.35 11.88 0 0 0
2017-10-20 23:00:00 13.1 13 13.2 0 6844 10.64 10.23 11.08 0 0 0
2017-10-20 23:30:00 13.1 13.1 13.2 0 6826 10.24 9.99 10.46 0 0 0
2017-10-21 00:00:00 12.9 12.7 13.1 0 6826 10.04 9.68 10.36 0 0 0
2017-10-21 00:30:00 12.8 12.7 13 0 6816 11.03 10.43 11.96 0 0 0
2017-10-21 01:00:00 12.8 12.7 13.2 0 6826 11.76 11.52 11.95 0 0 0
2017-10-21 01:30:00 12.9 12.8 13.1 0 6816 11.91 11.86 12 0 0 0
2017-10-21 02:00:00 13 12.9 13.2 0 6816 12.76 12.15 13.05 0 0 0
2017-10-21 02:30:00 13.1 12.9 13.4 0 6806 13.11 13.08 13.14 0 0 0
2017-10-21 03:00:00 13.3 13.3 13.5 0 6826 13.23 13.18 13.31 0 0 0
2017-10-21 03:30:00 13.3 13.3 13.4 0 6816 13.48 13.43 13.57 55.25 0
2017-10-21 04:00:00 13.4 13.4 13.6 0 6816 13.71 13.67 13.75 100 13.6 13.6
2017-10-21 04:30:00 13.5 13.4 13.6 0 6806 13.59 13.56 13.63 100 13.5 13.5
2017-10-21 05:00:00 13.6 13.6 13.6 0 6806 13.58 13.54 13.62 100 13.5 13.5
2017-10-21 05:30:00 13.5 13.5 13.7 0 6796 13.27 13.23 13.45 100 13.2 13.2
2017-10-21 06:00:00 13.6 13.5 13.8 0 6806 13.34 13.27 13.41 100 13.3 13.2
2017-10-21 06:30:00 13.6 13.5 13.8 0 6806 13.22 13.19 13.28 100 13.1 13.1
2017-10-21 07:00:00 13.6 13.2 13.8 0 6816 13.16 13.16 13.17 100 13.1 13.1
2017-10-21 07:30:00 13.6 13.5 13.8 0 6796 13.18 13.14 13.25 100 13.1 13.1
2017-10-21 08:00:00 13.7 13.6 13.8 0 6806 13.43 13.36 13.48 100 13.3 13.3
2017-10-21 08:30:00 13.7 13.6 13.9 0 6806 13.67 13.55 13.82 100 13.6 13.5